createdAt,value
2019-03-26T00:01:41.574Z,99.90
2019-03-26T00:04:11.757Z,99.90
2019-03-26T00:06:41.212Z,99.90
2019-03-26T00:09:10.773Z,99.90
2019-03-26T00:11:40.452Z,99.90
2019-03-26T00:14:09.936Z,99.90
2019-03-26T00:16:39.497Z,99.90
2019-03-26T00:19:09.518Z,99.90
2019-03-26T00:21:38.995Z,99.90
2019-03-26T00:24:08.489Z,99.90
2019-03-26T00:26:37.960Z,99.90
2019-03-26T00:29:07.457Z,99.90
2019-03-26T00:31:36.941Z,99.90
2019-03-26T00:34:18.690Z,99.90
2019-03-26T00:36:37.629Z,99.90
2019-03-26T00:39:09.436Z,99.90
2019-03-26T00:41:38.953Z,99.90
2019-03-26T00:44:08.705Z,99.90
2019-03-26T00:46:38.188Z,99.90
2019-03-26T00:49:27.008Z,99.90
2019-03-26T00:51:56.460Z,99.90
2019-03-26T00:54:25.956Z,99.90
2019-03-26T00:56:58.105Z,99.90
2019-03-26T00:59:27.581Z,99.90
2019-03-26T01:01:57.135Z,99.90
2019-03-26T01:04:32.818Z,99.90
2019-03-26T01:06:57.843Z,99.90
2019-03-26T01:09:27.301Z,99.90
2019-03-26T01:11:57.040Z,99.90
2019-03-26T01:14:26.499Z,99.90
2019-03-26T01:16:56.030Z,99.90
2019-03-26T01:19:25.519Z,99.90
2019-03-26T01:21:55.073Z,99.90
2019-03-26T01:24:24.529Z,99.90
2019-03-26T01:26:55.521Z,99.90
2019-03-26T01:29:24.981Z,99.90
2019-03-26T01:31:54.470Z,99.90
2019-03-26T01:34:23.976Z,99.90
2019-03-26T01:36:53.424Z,99.90
2019-03-26T01:39:22.890Z,99.90
2019-03-26T01:41:52.401Z,99.90
2019-03-26T01:44:21.870Z,99.90
2019-03-26T01:46:51.371Z,99.90
2019-03-26T01:49:20.840Z,99.90
2019-03-26T01:52:09.641Z,99.90
2019-03-26T01:54:39.197Z,99.90
2019-03-26T01:57:08.580Z,99.90
2019-03-26T01:59:38.040Z,99.90
2019-03-26T02:02:07.736Z,99.90
2019-03-26T02:04:37.389Z,99.90
2019-03-26T02:07:06.877Z,99.90
2019-03-26T02:09:36.369Z,99.90
2019-03-26T02:12:05.821Z,99.90
2019-03-26T02:14:35.302Z,99.90
2019-03-26T02:17:04.970Z,99.90
2019-03-26T02:19:34.461Z,99.90
2019-03-26T02:22:23.262Z,99.90
2019-03-26T02:24:52.724Z,99.90
2019-03-26T02:27:22.194Z,99.90
2019-03-26T02:29:51.714Z,99.90
2019-03-26T02:32:21.179Z,99.90
2019-03-26T02:34:50.850Z,99.90
2019-03-26T02:37:20.354Z,99.90
2019-03-26T02:39:49.837Z,99.90
2019-03-26T02:42:19.319Z,99.90
2019-03-26T02:44:48.825Z,99.90
2019-03-26T02:47:18.378Z,99.90
2019-03-26T02:49:47.922Z,99.90
2019-03-26T02:52:17.458Z,99.90
2019-03-26T02:54:46.947Z,99.90
2019-03-26T02:57:16.448Z,99.90
2019-03-26T02:59:45.956Z,99.90
2019-03-26T03:02:15.447Z,99.90
2019-03-26T03:04:45.185Z,99.90
2019-03-26T03:07:14.689Z,99.90
2019-03-26T03:09:44.202Z,99.90
2019-03-26T03:12:13.656Z,99.90
2019-03-26T03:14:43.173Z,99.90
2019-03-26T03:17:12.852Z,99.90
2019-03-26T03:19:43.809Z,99.90
2019-03-26T03:22:13.320Z,99.90
2019-03-26T03:24:42.793Z,99.90
2019-03-26T03:27:12.262Z,99.90
2019-03-26T03:29:41.775Z,99.90
2019-03-26T03:32:11.263Z,99.90
2019-03-26T03:34:40.854Z,99.90
2019-03-26T03:37:10.448Z,99.90
2019-03-26T03:39:40.003Z,99.90
2019-03-26T03:42:09.550Z,99.90
2019-03-26T03:44:58.465Z,99.90
2019-03-26T03:47:32.552Z,99.90
2019-03-26T03:50:03.356Z,99.90
2019-03-26T03:52:37.465Z,99.90
2019-03-26T03:55:08.363Z,99.90
2019-03-26T03:57:41.416Z,99.90
2019-03-26T04:00:15.509Z,99.90
2019-03-26T04:02:45.241Z,99.90
2019-03-26T04:05:14.906Z,99.90
2019-03-26T04:07:44.380Z,99.90
2019-03-26T04:10:13.843Z,99.90
2019-03-26T04:12:43.298Z,99.90
2019-03-26T04:15:13.319Z,99.90
2019-03-26T04:17:42.775Z,99.90
2019-03-26T04:20:12.592Z,99.90
2019-03-26T04:22:42.032Z,99.90
2019-03-26T04:25:11.837Z,99.90
2019-03-26T04:27:41.301Z,99.90
2019-03-26T04:30:11.275Z,99.90
2019-03-26T04:32:40.752Z,99.90
2019-03-26T04:35:10.544Z,99.90
2019-03-26T04:37:40.022Z,99.90
2019-03-26T04:40:09.649Z,99.90
2019-03-26T04:42:39.295Z,99.90
2019-03-26T04:45:09.714Z,99.90
2019-03-26T04:47:39.197Z,99.90
2019-03-26T04:50:09.180Z,99.90
2019-03-26T04:58:13.457Z,99.90
2019-03-26T05:00:43.695Z,99.90
2019-03-26T05:03:13.263Z,99.90
2019-03-26T05:05:43.054Z,99.90
2019-03-26T05:08:12.683Z,99.90
2019-03-26T05:10:42.401Z,99.90
2019-03-26T05:13:31.341Z,99.90
2019-03-26T05:16:00.898Z,99.90
2019-03-26T05:18:30.466Z,99.90
2019-03-26T05:21:00.041Z,99.90
2019-03-26T05:23:29.683Z,99.90
2019-03-26T05:25:59.227Z,99.90
2019-03-26T05:28:28.812Z,99.90
2019-03-26T05:30:58.372Z,99.90
2019-03-26T05:33:27.922Z,99.90
2019-03-26T05:35:57.550Z,99.90
2019-03-26T05:38:27.299Z,99.90
2019-03-26T05:40:57.035Z,99.90
2019-03-26T05:43:26.648Z,99.90
2019-03-26T05:45:56.186Z,99.90
2019-03-26T05:48:25.757Z,99.90
2019-03-26T05:50:55.327Z,99.90
2019-03-26T05:53:24.878Z,99.90
2019-03-26T05:55:54.545Z,99.90
2019-03-26T05:58:24.251Z,99.90
2019-03-26T06:00:53.969Z,99.90
2019-03-26T06:03:23.484Z,99.90
2019-03-26T06:05:57.617Z,99.90
2019-03-26T06:08:29.783Z,99.90
2019-03-26T06:11:04.782Z,99.90
2019-03-26T06:13:35.047Z,99.90
2019-03-26T06:16:19.522Z,99.90
2019-03-26T06:19:07.707Z,99.90
2019-03-26T06:21:56.257Z,99.90
2019-03-26T06:24:44.888Z,99.90
2019-03-26T06:27:33.359Z,99.90
2019-03-26T06:30:40.691Z,99.90
2019-03-26T06:33:29.410Z,99.90
2019-03-26T06:36:17.625Z,99.90
2019-03-26T06:39:06.237Z,99.90
2019-03-26T06:41:54.660Z,99.90
2019-03-26T06:44:42.791Z,99.90
2019-03-26T06:47:17.995Z,99.90
2019-03-26T06:50:06.172Z,99.90
2019-03-26T06:52:54.665Z,99.90
2019-03-26T06:55:42.800Z,99.90
2019-03-26T06:58:31.283Z,99.90
2019-03-26T07:01:04.636Z,99.90
2019-03-26T07:03:52.842Z,99.90
2019-03-26T07:06:40.932Z,99.90
2019-03-26T07:09:29.471Z,98.00
2019-03-26T07:12:36.806Z,94.10
2019-03-26T07:15:24.444Z,90.70
2019-03-26T07:18:12.734Z,81.00
2019-03-26T07:20:44.680Z,73.80
2019-03-26T07:23:52.027Z,65.70
2019-03-26T07:26:40.554Z,61.10
2019-03-26T07:29:28.700Z,58.60
2019-03-26T07:32:17.040Z,54.60
2019-03-26T07:34:50.553Z,55.50
2019-03-26T07:37:45.207Z,59.60
2019-03-26T07:40:29.021Z,56.30
2019-03-26T07:43:17.602Z,54.00
2019-03-26T07:46:05.872Z,52.70
2019-03-26T07:48:54.468Z,53.00
2019-03-26T07:51:45.717Z,50.20
2019-03-26T07:54:34.359Z,46.50
2019-03-26T07:57:22.617Z,46.30
2019-03-26T08:00:10.962Z,45.30
2019-03-26T08:02:59.252Z,42.70
2019-03-26T08:05:47.450Z,42.50
2019-03-26T08:08:35.671Z,43.20
2019-03-26T08:11:26.762Z,49.20
2019-03-26T08:14:15.360Z,45.90
2019-03-26T08:17:03.849Z,44.00
2019-03-26T08:19:52.303Z,43.30
2019-03-26T08:22:40.529Z,41.60
2019-03-26T08:25:28.774Z,40.60
2019-03-26T08:31:06.602Z,43.20
2019-03-26T08:33:54.979Z,50.50
2019-03-26T08:36:43.515Z,49.20
2019-03-26T08:39:31.753Z,48.20
2019-03-26T08:42:20.416Z,54.00
2019-03-26T08:45:08.394Z,53.50
2019-03-26T08:47:38.709Z,56.00
2019-03-26T08:50:27.555Z,56.60
2019-03-26T08:52:57.275Z,69.30
2019-03-26T08:55:26.895Z,69.60
2019-03-26T08:57:56.475Z,64.90
2019-03-26T09:00:45.399Z,60.90
2019-03-26T09:03:14.974Z,63.60
2019-03-26T09:05:44.565Z,56.20
2019-03-26T09:08:24.856Z,57.70
2019-03-26T09:10:51.597Z,48.80
2019-03-26T09:13:16.919Z,41.00
2019-03-26T09:16:05.857Z,40.10
2019-03-26T09:18:41.410Z,41.80
2019-03-26T09:21:10.984Z,46.20
2019-03-26T09:23:40.578Z,47.60
2019-03-26T09:26:10.144Z,49.60
2019-03-26T09:28:39.714Z,50.80
2019-03-26T09:31:09.323Z,51.80
2019-03-26T09:33:38.906Z,56.80
2019-03-26T09:36:08.517Z,60.00
2019-03-26T09:38:39.377Z,93.30
2019-03-26T09:41:09.192Z,99.60
2019-03-26T09:43:38.936Z,99.90
2019-03-26T09:46:08.682Z,99.90
2019-03-26T09:48:46.888Z,99.90
2019-03-26T09:51:16.540Z,99.90
2019-03-26T09:53:46.316Z,99.90
2019-03-26T09:56:27.913Z,99.90
2019-03-26T09:58:47.335Z,99.90
2019-03-26T10:01:17.013Z,99.90
2019-03-26T10:03:46.602Z,99.90
2019-03-26T10:06:23.180Z,99.90
2019-03-26T10:08:52.270Z,99.90
2019-03-26T10:11:16.754Z,99.90
2019-03-26T10:13:46.393Z,99.90
2019-03-26T10:16:16.131Z,99.90
2019-03-26T10:18:45.765Z,99.90
2019-03-26T10:21:15.479Z,99.90
2019-03-26T10:23:45.025Z,99.90
2019-03-26T10:26:14.567Z,99.90
2019-03-26T10:28:44.176Z,99.90
2019-03-26T10:31:13.750Z,99.90
2019-03-26T10:33:43.321Z,99.90
2019-03-26T10:36:13.375Z,99.90
2019-03-26T10:38:42.948Z,99.90
2019-03-26T10:41:12.892Z,99.90
2019-03-26T10:43:42.468Z,99.90
2019-03-26T10:46:12.275Z,99.90
2019-03-26T10:48:41.854Z,99.90
2019-03-26T10:51:11.460Z,99.90
2019-03-26T10:53:41.032Z,99.90
2019-03-26T10:56:10.616Z,99.90
2019-03-26T10:58:40.220Z,99.90
2019-03-26T11:01:09.786Z,97.00
2019-03-26T11:03:39.404Z,96.60
2019-03-26T11:06:09.080Z,98.20
2019-03-26T11:08:38.851Z,99.90
2019-03-26T11:11:08.416Z,99.90
2019-03-26T11:13:38.107Z,99.90
2019-03-26T11:16:07.676Z,95.10
2019-03-26T11:18:37.247Z,94.70
2019-03-26T11:21:06.855Z,97.40
2019-03-26T11:23:36.531Z,91.10
2019-03-26T11:26:06.141Z,90.60
2019-03-26T11:28:37.285Z,95.50
2019-03-26T11:31:07.039Z,96.50
2019-03-26T11:33:36.600Z,97.40
2019-03-26T11:36:06.252Z,97.50
2019-03-26T11:38:35.916Z,93.70
2019-03-26T11:41:05.460Z,96.40
2019-03-26T11:43:54.430Z,85.70
2019-03-26T11:46:24.126Z,94.40
2019-03-26T11:48:53.734Z,91.20
2019-03-26T11:51:23.308Z,86.80
2019-03-26T11:53:52.986Z,81.40
2019-03-26T11:56:22.727Z,84.10
2019-03-26T11:58:52.367Z,74.80
2019-03-26T12:01:22.005Z,80.40
2019-03-26T12:03:51.590Z,80.10
2019-03-26T12:06:21.273Z,83.40
2019-03-26T12:08:50.905Z,85.00
2019-03-26T12:11:20.511Z,85.00
2019-03-26T12:13:50.082Z,79.10
2019-03-26T12:16:19.650Z,82.20
2019-03-26T12:18:49.232Z,93.20
2019-03-26T12:21:18.835Z,94.60
2019-03-26T12:23:48.423Z,82.40
2019-03-26T12:26:18.026Z,85.10
2019-03-26T12:28:47.630Z,83.00
2019-03-26T12:31:17.342Z,90.00
2019-03-26T12:33:46.918Z,95.50
2019-03-26T12:36:16.659Z,91.80
2019-03-26T12:38:46.306Z,86.70
2019-03-26T12:41:15.978Z,91.00
2019-03-26T12:43:51.603Z,71.70
2019-03-26T12:46:21.281Z,77.90
2019-03-26T12:48:50.968Z,72.50
2019-03-26T12:51:20.575Z,64.70
2019-03-26T12:53:50.131Z,71.30
2019-03-26T12:56:19.691Z,65.60
2019-03-26T12:58:50.939Z,75.20
2019-03-26T13:01:20.515Z,88.20
2019-03-26T13:03:50.170Z,90.30
2019-03-26T13:06:19.859Z,68.20
2019-03-26T13:08:49.410Z,65.60
2019-03-26T13:11:19.044Z,68.40
2019-03-26T13:13:48.623Z,83.20
2019-03-26T13:16:18.189Z,90.70
2019-03-26T13:18:47.785Z,92.80
2019-03-26T13:21:18.948Z,91.60
2019-03-26T13:23:48.526Z,87.70
2019-03-26T13:26:19.946Z,94.00
2019-03-26T13:28:56.016Z,87.90
2019-03-26T13:31:25.516Z,94.50
2019-03-26T13:33:55.004Z,94.20
2019-03-26T13:36:24.841Z,91.00
2019-03-26T13:38:54.368Z,91.10
2019-03-26T13:41:23.876Z,80.50
2019-03-26T13:43:53.382Z,78.00
2019-03-26T13:46:22.864Z,91.30
2019-03-26T13:48:52.411Z,83.50
2019-03-26T13:51:21.954Z,87.40
2019-03-26T13:53:53.137Z,88.60
2019-03-26T13:56:22.618Z,81.00
2019-03-26T13:58:52.471Z,89.50
2019-03-26T14:01:22.999Z,91.10
2019-03-26T14:03:52.591Z,85.60
2019-03-26T14:06:22.523Z,87.30
2019-03-26T14:08:52.109Z,82.00
2019-03-26T14:11:21.587Z,85.00
2019-03-26T14:13:51.164Z,67.70
2019-03-26T14:16:20.694Z,74.60
2019-03-26T14:18:50.149Z,86.90
2019-03-26T14:21:19.741Z,79.30
2019-03-26T14:24:08.504Z,71.70
2019-03-26T14:26:38.068Z,74.00
2019-03-26T14:29:07.735Z,76.20
2019-03-26T14:31:56.571Z,75.10
2019-03-26T14:34:26.049Z,85.90
2019-03-26T14:36:55.661Z,67.10
2019-03-26T14:39:26.726Z,72.70
2019-03-26T14:41:56.231Z,70.60
2019-03-26T14:44:25.738Z,64.70
2019-03-26T14:46:55.274Z,67.80
2019-03-26T14:49:24.739Z,77.70
2019-03-26T14:51:54.251Z,73.50
2019-03-26T14:54:24.881Z,88.10
2019-03-26T14:56:54.339Z,80.90
2019-03-26T14:59:23.888Z,71.30
2019-03-26T15:01:53.377Z,72.30
2019-03-26T15:04:22.979Z,77.90
2019-03-26T15:06:52.448Z,81.90
2019-03-26T15:09:21.985Z,71.70
2019-03-26T15:11:51.459Z,71.60
2019-03-26T15:14:21.306Z,73.20
2019-03-26T15:16:50.852Z,85.00
2019-03-26T15:19:20.357Z,87.50
2019-03-26T15:21:49.866Z,78.50
2019-03-26T15:24:19.347Z,80.70
2019-03-26T15:26:48.831Z,85.30
2019-03-26T15:29:18.321Z,84.00
2019-03-26T15:31:48.171Z,88.50
2019-03-26T15:34:17.644Z,89.80
2019-03-26T15:36:47.130Z,92.80
2019-03-26T15:39:16.686Z,91.90
2019-03-26T15:41:46.129Z,89.30
2019-03-26T15:44:15.655Z,90.80
2019-03-26T15:46:45.162Z,92.00
2019-03-26T15:49:14.625Z,89.70
2019-03-26T15:51:44.126Z,87.20
2019-03-26T15:54:13.704Z,85.80
2019-03-26T15:56:43.182Z,84.60
2019-03-26T15:59:12.643Z,90.10
2019-03-26T16:01:44.579Z,91.00
2019-03-26T16:04:14.076Z,96.40
2019-03-26T16:06:43.552Z,96.50
2019-03-26T16:09:13.074Z,94.50
2019-03-26T16:11:44.152Z,94.80
2019-03-26T16:14:13.654Z,91.70
2019-03-26T16:16:43.377Z,87.90
2019-03-26T16:19:12.938Z,85.60
2019-03-26T16:21:42.491Z,90.00
2019-03-26T16:24:11.994Z,80.30
2019-03-26T16:26:41.480Z,89.10
2019-03-26T16:29:11.478Z,97.70
2019-03-26T16:31:42.542Z,93.80
2019-03-26T16:34:12.351Z,94.60
2019-03-26T16:36:41.861Z,98.20
2019-03-26T16:39:11.465Z,93.10
2019-03-26T16:41:48.972Z,91.50
2019-03-26T16:44:12.221Z,91.40
2019-03-26T16:46:41.722Z,89.30
2019-03-26T16:49:11.229Z,91.00
2019-03-26T16:51:40.733Z,93.20
2019-03-26T16:54:10.209Z,97.00
2019-03-26T16:56:39.702Z,96.60
2019-03-26T16:59:09.299Z,99.90
2019-03-26T17:01:39.083Z,99.50
2019-03-26T17:04:08.689Z,96.40
2019-03-26T17:06:38.178Z,99.30
2019-03-26T17:09:08.710Z,97.10
2019-03-26T17:11:38.180Z,93.20
2019-03-26T17:14:09.382Z,91.90
2019-03-26T17:16:38.931Z,89.70
2019-03-26T17:19:08.408Z,90.60
2019-03-26T17:21:37.923Z,98.20
2019-03-26T17:24:07.446Z,92.20
2019-03-26T17:26:36.951Z,90.20
2019-03-26T17:29:06.431Z,86.80
2019-03-26T17:31:36.175Z,83.50
2019-03-26T17:34:05.731Z,89.70
2019-03-26T17:36:35.181Z,92.60
2019-03-26T17:39:07.829Z,93.20
2019-03-26T17:41:43.341Z,92.00
2019-03-26T17:44:12.851Z,94.60
2019-03-26T17:46:42.415Z,93.60
2019-03-26T17:49:11.875Z,94.00
2019-03-26T17:51:41.770Z,93.60
2019-03-26T17:54:12.760Z,95.60
2019-03-26T17:56:42.238Z,94.60
2019-03-26T17:59:11.782Z,95.30
2019-03-26T18:01:41.246Z,96.90
2019-03-26T18:04:13.903Z,97.80
2019-03-26T18:06:43.565Z,97.70
2019-03-26T18:09:13.045Z,99.80
2019-03-26T18:11:42.522Z,98.80
2019-03-26T18:14:18.114Z,99.90
2019-03-26T18:16:49.088Z,99.90
2019-03-26T18:19:20.149Z,99.90
2019-03-26T18:21:51.777Z,99.90
2019-03-26T18:24:20.862Z,99.90
2019-03-26T18:26:53.295Z,99.90
2019-03-26T18:29:22.842Z,99.90
2019-03-26T18:31:52.325Z,99.90
2019-03-26T18:34:21.793Z,99.90
2019-03-26T18:36:51.340Z,99.90
2019-03-26T18:39:20.880Z,99.90
2019-03-26T18:41:50.372Z,99.90
2019-03-26T18:44:19.883Z,99.90
2019-03-26T18:46:49.378Z,99.90
2019-03-26T18:49:18.947Z,99.90
2019-03-26T18:51:48.725Z,99.90
2019-03-26T18:54:18.205Z,99.90
2019-03-26T18:56:47.705Z,99.90
2019-03-26T18:59:17.267Z,99.90
2019-03-26T19:01:46.761Z,99.90
2019-03-26T19:04:16.318Z,99.90
2019-03-26T19:06:45.853Z,99.90
2019-03-26T19:09:21.291Z,99.90
2019-03-26T19:11:56.867Z,99.90
2019-03-26T19:14:26.356Z,99.90
2019-03-26T19:16:55.839Z,99.90
2019-03-26T19:19:25.340Z,99.90
2019-03-26T19:21:54.813Z,99.90
2019-03-26T19:24:24.291Z,99.90
2019-03-26T19:26:53.796Z,99.90
2019-03-26T19:29:23.270Z,99.90
2019-03-26T19:31:52.734Z,99.90
2019-03-26T19:34:22.273Z,99.90
2019-03-26T19:36:51.765Z,99.90
2019-03-26T19:39:21.270Z,99.90
2019-03-26T19:41:52.300Z,99.90
2019-03-26T19:44:21.780Z,99.90
2019-03-26T19:46:51.261Z,99.90
2019-03-26T19:49:20.769Z,99.90
2019-03-26T19:51:50.334Z,99.90
2019-03-26T19:54:19.860Z,99.90
2019-03-26T19:57:08.675Z,99.90
2019-03-26T19:59:39.677Z,99.90
2019-03-26T20:02:09.162Z,99.90
2019-03-26T20:04:39.154Z,99.90
2019-03-26T20:07:08.642Z,99.90
2019-03-26T20:09:38.097Z,99.90
2019-03-26T20:12:07.671Z,99.90
2019-03-26T20:14:37.176Z,99.90
2019-03-26T20:17:06.708Z,99.90
2019-03-26T20:19:36.212Z,99.90
2019-03-26T20:22:05.754Z,99.90
2019-03-26T20:24:38.268Z,99.90
2019-03-26T20:27:07.773Z,99.90
2019-03-26T20:29:37.305Z,99.90
2019-03-26T20:32:06.772Z,99.90
2019-03-26T20:34:36.294Z,99.90
2019-03-26T20:37:05.854Z,99.90
2019-03-26T20:39:35.319Z,99.90
2019-03-26T20:42:04.899Z,99.90
2019-03-26T20:44:34.376Z,99.90
2019-03-26T20:47:03.835Z,99.90
2019-03-26T20:49:33.312Z,99.90
2019-03-26T20:52:02.800Z,99.90
2019-03-26T20:54:33.793Z,99.90
2019-03-26T20:57:03.664Z,99.90
2019-03-26T20:59:34.662Z,99.90
2019-03-26T21:02:04.512Z,99.90
2019-03-26T21:04:37.057Z,99.90
2019-03-26T21:07:07.417Z,99.90
2019-03-26T21:09:38.657Z,99.90
2019-03-26T21:12:08.287Z,99.90
2019-03-26T21:14:37.826Z,99.90
2019-03-26T21:17:07.425Z,99.90
2019-03-26T21:19:36.926Z,99.90
2019-03-26T21:22:07.967Z,99.90
2019-03-26T21:24:37.452Z,99.90
2019-03-26T21:27:07.397Z,99.90
2019-03-26T21:29:36.894Z,99.90
2019-03-26T21:32:07.937Z,99.90
2019-03-26T21:34:37.494Z,99.90
2019-03-26T21:37:07.113Z,99.90
2019-03-26T21:39:38.286Z,99.90
2019-03-26T21:42:07.809Z,99.90
2019-03-26T21:44:37.298Z,99.90
2019-03-26T21:47:08.357Z,99.90
2019-03-26T21:49:38.022Z,99.90
2019-03-26T21:52:07.757Z,99.90
2019-03-26T21:54:37.253Z,99.90
2019-03-26T21:57:06.781Z,99.90
2019-03-26T21:59:36.240Z,99.90
2019-03-26T22:02:05.799Z,99.90
2019-03-26T22:04:36.819Z,99.90
2019-03-26T22:07:06.421Z,99.90
2019-03-26T22:09:37.477Z,99.90
2019-03-26T22:12:10.063Z,99.90
2019-03-26T22:14:39.517Z,99.90
2019-03-26T22:17:09.056Z,99.90
2019-03-26T22:19:38.549Z,99.90
2019-03-26T22:22:10.922Z,99.90
2019-03-26T22:24:47.614Z,99.90
2019-03-26T22:27:19.986Z,99.90
2019-03-26T22:29:49.450Z,99.90
2019-03-26T22:32:19.449Z,99.90
2019-03-26T22:34:48.892Z,99.90
2019-03-26T22:37:18.420Z,99.90
2019-03-26T22:39:47.966Z,99.90
2019-03-26T22:42:17.488Z,99.90
2019-03-26T22:44:46.959Z,99.90
2019-03-26T22:47:16.476Z,99.90
2019-03-26T22:49:46.022Z,99.90
2019-03-26T22:52:15.557Z,99.90
2019-03-26T22:54:45.078Z,99.90
2019-03-26T22:57:14.562Z,99.90
2019-03-26T22:59:46.721Z,99.90
2019-03-26T23:02:17.915Z,99.90
2019-03-26T23:04:48.995Z,99.90
2019-03-26T23:07:18.509Z,99.90
2019-03-26T23:09:48.074Z,99.90
2019-03-26T23:12:17.491Z,99.90
2019-03-26T23:14:46.954Z,99.90
2019-03-26T23:17:16.472Z,99.90
2019-03-26T23:19:45.955Z,99.90
2019-03-26T23:22:15.458Z,99.90
2019-03-26T23:24:44.980Z,99.90
2019-03-26T23:27:14.453Z,99.90
2019-03-26T23:30:05.287Z,99.90
2019-03-26T23:32:34.777Z,99.90
2019-03-26T23:35:04.630Z,99.90
2019-03-26T23:37:34.088Z,99.90
2019-03-26T23:40:22.868Z,99.90
2019-03-26T23:42:52.421Z,99.90
2019-03-26T23:45:21.900Z,99.90
2019-03-26T23:47:51.448Z,99.90
2019-03-26T23:50:20.958Z,99.90
2019-03-26T23:52:50.416Z,99.90
2019-03-26T23:55:19.911Z,99.90
2019-03-26T23:57:49.413Z,99.90
